sensor_id;sensor_type;location;lat;lon;timestamp;P1;durP1;ratioP1;P2;durP2;ratioP2
10100;SDS011;5090;51.258;4.436;2023-04-24T00:01:59;29.10;;;18.63;;
10100;SDS011;5090;51.258;4.436;2023-04-24T00:04:27;36.20;;;19.70;;
10100;SDS011;5090;51.258;4.436;2023-04-24T00:06:55;30.43;;;19.37;;
10100;SDS011;5090;51.258;4.436;2023-04-24T00:09:23;28.43;;;19.53;;
10100;SDS011;5090;51.258;4.436;2023-04-24T00:11:52;33.67;;;21.07;;
10100;SDS011;5090;51.258;4.436;2023-04-24T00:14:20;29.60;;;19.77;;
10100;SDS011;5090;51.258;4.436;2023-04-24T00:16:48;29.07;;;19.10;;
10100;SDS011;5090;51.258;4.436;2023-04-24T00:19:16;29.50;;;19.63;;
10100;SDS011;5090;51.258;4.436;2023-04-24T00:21:45;28.67;;;19.10;;
10100;SDS011;5090;51.258;4.436;2023-04-24T00:24:13;31.43;;;18.33;;
10100;SDS011;5090;51.258;4.436;2023-04-24T00:26:42;27.03;;;19.17;;
10100;SDS011;5090;51.258;4.436;2023-04-24T00:29:10;30.87;;;18.57;;
10100;SDS011;5090;51.258;4.436;2023-04-24T00:31:38;28.27;;;18.53;;
10100;SDS011;5090;51.258;4.436;2023-04-24T00:34:06;26.83;;;17.90;;
10100;SDS011;5090;51.258;4.436;2023-04-24T00:36:35;25.67;;;16.97;;
10100;SDS011;5090;51.258;4.436;2023-04-24T00:39:03;24.43;;;17.27;;
10100;SDS011;5090;51.258;4.436;2023-04-24T00:41:31;21.60;;;16.37;;
10100;SDS011;5090;51.258;4.436;2023-04-24T00:44:00;21.93;;;17.10;;
10100;SDS011;5090;51.258;4.436;2023-04-24T00:46:28;24.43;;;16.03;;
10100;SDS011;5090;51.258;4.436;2023-04-24T00:48:57;22.53;;;15.60;;
10100;SDS011;5090;51.258;4.436;2023-04-24T00:51:25;22.43;;;15.10;;
10100;SDS011;5090;51.258;4.436;2023-04-24T00:53:53;19.90;;;14.17;;
10100;SDS011;5090;51.258;4.436;2023-04-24T00:56:22;22.87;;;14.30;;
10100;SDS011;5090;51.258;4.436;2023-04-24T00:58:50;18.63;;;13.90;;
10100;SDS011;5090;51.258;4.436;2023-04-24T01:01:19;21.53;;;14.20;;
10100;SDS011;5090;51.258;4.436;2023-04-24T01:03:49;20.70;;;13.80;;
10100;SDS011;5090;51.258;4.436;2023-04-24T01:06:17;17.73;;;14.07;;
10100;SDS011;5090;51.258;4.436;2023-04-24T01:08:45;22.83;;;15.80;;
10100;SDS011;5090;51.258;4.436;2023-04-24T01:11:14;28.57;;;15.23;;
10100;SDS011;5090;51.258;4.436;2023-04-24T01:13:42;24.60;;;15.90;;
10100;SDS011;5090;51.258;4.436;2023-04-24T01:16:10;23.13;;;16.70;;
10100;SDS011;5090;51.258;4.436;2023-04-24T01:18:38;23.70;;;17.63;;
10100;SDS011;5090;51.258;4.436;2023-04-24T01:21:07;25.50;;;17.27;;
10100;SDS011;5090;51.258;4.436;2023-04-24T01:23:35;24.37;;;18.17;;
10100;SDS011;5090;51.258;4.436;2023-04-24T01:26:03;25.53;;;18.60;;
10100;SDS011;5090;51.258;4.436;2023-04-24T01:28:31;24.03;;;18.17;;
10100;SDS011;5090;51.258;4.436;2023-04-24T01:31:00;25.73;;;18.67;;
10100;SDS011;5090;51.258;4.436;2023-04-24T01:33:28;24.53;;;17.87;;
10100;SDS011;5090;51.258;4.436;2023-04-24T01:35:56;26.53;;;18.67;;
10100;SDS011;5090;51.258;4.436;2023-04-24T01:38:24;27.33;;;18.77;;
10100;SDS011;5090;51.258;4.436;2023-04-24T01:40:53;24.90;;;17.57;;
10100;SDS011;5090;51.258;4.436;2023-04-24T01:43:21;26.37;;;18.03;;
10100;SDS011;5090;51.258;4.436;2023-04-24T01:45:49;23.07;;;17.10;;
10100;SDS011;5090;51.258;4.436;2023-04-24T01:48:17;19.27;;;15.50;;
10100;SDS011;5090;51.258;4.436;2023-04-24T01:50:46;22.77;;;16.23;;
10100;SDS011;5090;51.258;4.436;2023-04-24T01:53:14;19.73;;;15.20;;
10100;SDS011;5090;51.258;4.436;2023-04-24T01:55:42;19.60;;;15.30;;
10100;SDS011;5090;51.258;4.436;2023-04-24T01:58:10;19.17;;;15.13;;
10100;SDS011;5090;51.258;4.436;2023-04-24T02:00:39;19.73;;;13.77;;
10100;SDS011;5090;51.258;4.436;2023-04-24T02:03:07;20.43;;;14.43;;
10100;SDS011;5090;51.258;4.436;2023-04-24T02:05:35;17.90;;;13.33;;
10100;SDS011;5090;51.258;4.436;2023-04-24T02:08:04;19.27;;;13.90;;
10100;SDS011;5090;51.258;4.436;2023-04-24T02:10:32;21.13;;;12.97;;
10100;SDS011;5090;51.258;4.436;2023-04-24T02:13:00;17.63;;;12.63;;
10100;SDS011;5090;51.258;4.436;2023-04-24T02:15:29;16.33;;;11.87;;
10100;SDS011;5090;51.258;4.436;2023-04-24T02:17:57;15.77;;;12.20;;
10100;SDS011;5090;51.258;4.436;2023-04-24T02:20:25;17.60;;;12.60;;
10100;SDS011;5090;51.258;4.436;2023-04-24T02:22:54;13.47;;;11.60;;
10100;SDS011;5090;51.258;4.436;2023-04-24T02:25:22;16.43;;;12.03;;
10100;SDS011;5090;51.258;4.436;2023-04-24T02:27:50;14.53;;;12.23;;
10100;SDS011;5090;51.258;4.436;2023-04-24T02:30:19;19.00;;;12.73;;
10100;SDS011;5090;51.258;4.436;2023-04-24T02:32:47;18.57;;;12.87;;
10100;SDS011;5090;51.258;4.436;2023-04-24T02:35:15;19.67;;;12.47;;
10100;SDS011;5090;51.258;4.436;2023-04-24T02:37:44;15.80;;;13.03;;
10100;SDS011;5090;51.258;4.436;2023-04-24T02:40:12;17.73;;;12.93;;
10100;SDS011;5090;51.258;4.436;2023-04-24T02:42:40;20.60;;;13.17;;
10100;SDS011;5090;51.258;4.436;2023-04-24T02:45:09;18.37;;;13.23;;
10100;SDS011;5090;51.258;4.436;2023-04-24T02:47:37;20.00;;;13.27;;
10100;SDS011;5090;51.258;4.436;2023-04-24T02:50:07;18.80;;;14.63;;
10100;SDS011;5090;51.258;4.436;2023-04-24T02:52:35;18.27;;;14.37;;
10100;SDS011;5090;51.258;4.436;2023-04-24T02:55:03;16.77;;;14.20;;
10100;SDS011;5090;51.258;4.436;2023-04-24T02:57:32;18.60;;;14.70;;
10100;SDS011;5090;51.258;4.436;2023-04-24T03:00:01;18.73;;;14.73;;
10100;SDS011;5090;51.258;4.436;2023-04-24T03:02:29;18.97;;;15.00;;
10100;SDS011;5090;51.258;4.436;2023-04-24T03:04:58;18.70;;;15.33;;
10100;SDS011;5090;51.258;4.436;2023-04-24T03:07:26;19.03;;;15.93;;
10100;SDS011;5090;51.258;4.436;2023-04-24T03:09:54;17.77;;;14.40;;
10100;SDS011;5090;51.258;4.436;2023-04-24T03:12:22;19.90;;;15.90;;
10100;SDS011;5090;51.258;4.436;2023-04-24T03:14:51;24.40;;;16.60;;
10100;SDS011;5090;51.258;4.436;2023-04-24T03:17:19;20.77;;;16.20;;
10100;SDS011;5090;51.258;4.436;2023-04-24T03:19:47;19.97;;;15.73;;
10100;SDS011;5090;51.258;4.436;2023-04-24T03:22:15;20.97;;;16.00;;
10100;SDS011;5090;51.258;4.436;2023-04-24T03:24:45;20.80;;;16.70;;
10100;SDS011;5090;51.258;4.436;2023-04-24T03:27:13;17.33;;;14.93;;
10100;SDS011;5090;51.258;4.436;2023-04-24T03:29:41;19.90;;;15.73;;
10100;SDS011;5090;51.258;4.436;2023-04-24T03:32:10;18.47;;;14.37;;
10100;SDS011;5090;51.258;4.436;2023-04-24T03:34:38;14.57;;;10.93;;
10100;SDS011;5090;51.258;4.436;2023-04-24T03:37:06;12.07;;;9.50;;
10100;SDS011;5090;51.258;4.436;2023-04-24T03:39:34;15.20;;;7.80;;
10100;SDS011;5090;51.258;4.436;2023-04-24T03:42:03;8.10;;;5.53;;
10100;SDS011;5090;51.258;4.436;2023-04-24T03:44:31;10.40;;;5.13;;
10100;SDS011;5090;51.258;4.436;2023-04-24T03:46:59;6.73;;;4.67;;
10100;SDS011;5090;51.258;4.436;2023-04-24T03:49:27;7.57;;;4.70;;
10100;SDS011;5090;51.258;4.436;2023-04-24T03:51:56;15.07;;;4.50;;
10100;SDS011;5090;51.258;4.436;2023-04-24T03:54:26;7.40;;;5.00;;
10100;SDS011;5090;51.258;4.436;2023-04-24T03:56:54;7.63;;;4.37;;
10100;SDS011;5090;51.258;4.436;2023-04-24T03:59:22;4.97;;;3.80;;
10100;SDS011;5090;51.258;4.436;2023-04-24T04:01:51;8.10;;;4.17;;
10100;SDS011;5090;51.258;4.436;2023-04-24T04:04:20;12.57;;;5.77;;
10100;SDS011;5090;51.258;4.436;2023-04-24T04:06:48;10.23;;;6.73;;
10100;SDS011;5090;51.258;4.436;2023-04-24T04:09:16;9.10;;;6.23;;
10100;SDS011;5090;51.258;4.436;2023-04-24T04:11:44;10.23;;;6.67;;
10100;SDS011;5090;51.258;4.436;2023-04-24T04:14:13;15.03;;;6.53;;
10100;SDS011;5090;51.258;4.436;2023-04-24T04:16:41;9.13;;;6.37;;
10100;SDS011;5090;51.258;4.436;2023-04-24T04:19:09;11.87;;;6.40;;
10100;SDS011;5090;51.258;4.436;2023-04-24T04:21:37;10.87;;;6.90;;
10100;SDS011;5090;51.258;4.436;2023-04-24T04:24:05;10.90;;;6.87;;
10100;SDS011;5090;51.258;4.436;2023-04-24T04:26:34;12.57;;;6.87;;
10100;SDS011;5090;51.258;4.436;2023-04-24T04:29:02;13.73;;;7.20;;
10100;SDS011;5090;51.258;4.436;2023-04-24T04:31:31;13.33;;;7.20;;
10100;SDS011;5090;51.258;4.436;2023-04-24T04:33:59;9.00;;;6.87;;
10100;SDS011;5090;51.258;4.436;2023-04-24T04:36:28;12.93;;;7.67;;
10100;SDS011;5090;51.258;4.436;2023-04-24T04:38:56;12.17;;;7.80;;
10100;SDS011;5090;51.258;4.436;2023-04-24T04:41:24;16.83;;;8.20;;
10100;SDS011;5090;51.258;4.436;2023-04-24T04:43:52;12.47;;;8.97;;
10100;SDS011;5090;51.258;4.436;2023-04-24T04:46:21;15.47;;;9.87;;
10100;SDS011;5090;51.258;4.436;2023-04-24T04:48:49;16.03;;;9.83;;
10100;SDS011;5090;51.258;4.436;2023-04-24T04:51:17;18.93;;;11.30;;
10100;SDS011;5090;51.258;4.436;2023-04-24T04:53:45;13.73;;;10.17;;
10100;SDS011;5090;51.258;4.436;2023-04-24T04:56:13;19.70;;;11.17;;
10100;SDS011;5090;51.258;4.436;2023-04-24T04:58:42;17.40;;;11.70;;
10100;SDS011;5090;51.258;4.436;2023-04-24T05:01:10;24.83;;;12.17;;
10100;SDS011;5090;51.258;4.436;2023-04-24T05:03:38;20.80;;;12.73;;
10100;SDS011;5090;51.258;4.436;2023-04-24T05:06:06;21.63;;;12.30;;
10100;SDS011;5090;51.258;4.436;2023-04-24T05:08:35;25.87;;;13.90;;
10100;SDS011;5090;51.258;4.436;2023-04-24T05:11:03;22.83;;;13.90;;
10100;SDS011;5090;51.258;4.436;2023-04-24T05:13:31;23.37;;;13.93;;
10100;SDS011;5090;51.258;4.436;2023-04-24T05:15:59;23.93;;;12.87;;
10100;SDS011;5090;51.258;4.436;2023-04-24T05:18:27;17.90;;;12.57;;
10100;SDS011;5090;51.258;4.436;2023-04-24T05:20:56;19.70;;;11.93;;
10100;SDS011;5090;51.258;4.436;2023-04-24T05:23:24;24.33;;;11.97;;
10100;SDS011;5090;51.258;4.436;2023-04-24T05:25:52;23.20;;;12.23;;
10100;SDS011;5090;51.258;4.436;2023-04-24T05:28:24;17.10;;;11.60;;
10100;SDS011;5090;51.258;4.436;2023-04-24T05:31:04;17.83;;;10.87;;
10100;SDS011;5090;51.258;4.436;2023-04-24T05:33:32;16.07;;;11.67;;
10100;SDS011;5090;51.258;4.436;2023-04-24T05:36:00;17.17;;;10.30;;
10100;SDS011;5090;51.258;4.436;2023-04-24T05:38:28;22.37;;;10.93;;
10100;SDS011;5090;51.258;4.436;2023-04-24T05:40:57;18.53;;;11.07;;
10100;SDS011;5090;51.258;4.436;2023-04-24T05:43:25;18.43;;;10.13;;
10100;SDS011;5090;51.258;4.436;2023-04-24T05:45:53;19.57;;;10.43;;
10100;SDS011;5090;51.258;4.436;2023-04-24T05:48:22;14.37;;;10.17;;
10100;SDS011;5090;51.258;4.436;2023-04-24T05:50:50;19.00;;;10.37;;
10100;SDS011;5090;51.258;4.436;2023-04-24T05:53:18;13.83;;;9.40;;
10100;SDS011;5090;51.258;4.436;2023-04-24T05:55:47;19.13;;;9.63;;
10100;SDS011;5090;51.258;4.436;2023-04-24T05:58:15;13.57;;;8.70;;
10100;SDS011;5090;51.258;4.436;2023-04-24T06:00:43;17.60;;;9.40;;
10100;SDS011;5090;51.258;4.436;2023-04-24T06:03:11;19.30;;;10.70;;
10100;SDS011;5090;51.258;4.436;2023-04-24T06:05:40;23.30;;;11.27;;
10100;SDS011;5090;51.258;4.436;2023-04-24T06:08:10;20.73;;;10.47;;
10100;SDS011;5090;51.258;4.436;2023-04-24T06:10:38;17.60;;;11.67;;
10100;SDS011;5090;51.258;4.436;2023-04-24T06:13:07;18.80;;;11.73;;
10100;SDS011;5090;51.258;4.436;2023-04-24T06:15:36;22.63;;;11.90;;
10100;SDS011;5090;51.258;4.436;2023-04-24T06:18:05;24.43;;;12.67;;
10100;SDS011;5090;51.258;4.436;2023-04-24T06:20:33;23.77;;;12.20;;
10100;SDS011;5090;51.258;4.436;2023-04-24T06:23:02;19.67;;;11.37;;
10100;SDS011;5090;51.258;4.436;2023-04-24T06:25:30;17.90;;;11.67;;
10100;SDS011;5090;51.258;4.436;2023-04-24T06:27:58;18.63;;;11.80;;
10100;SDS011;5090;51.258;4.436;2023-04-24T06:30:27;23.27;;;12.20;;
10100;SDS011;5090;51.258;4.436;2023-04-24T06:32:55;22.43;;;12.00;;
10100;SDS011;5090;51.258;4.436;2023-04-24T06:35:23;26.23;;;11.67;;
10100;SDS011;5090;51.258;4.436;2023-04-24T06:37:51;18.50;;;10.67;;
10100;SDS011;5090;51.258;4.436;2023-04-24T06:40:20;24.50;;;12.63;;
10100;SDS011;5090;51.258;4.436;2023-04-24T06:42:48;17.73;;;10.50;;
10100;SDS011;5090;51.258;4.436;2023-04-24T06:45:16;28.43;;;10.77;;
10100;SDS011;5090;51.258;4.436;2023-04-24T06:47:44;19.17;;;10.00;;
10100;SDS011;5090;51.258;4.436;2023-04-24T06:50:13;18.47;;;10.57;;
10100;SDS011;5090;51.258;4.436;2023-04-24T06:52:41;22.80;;;10.07;;
10100;SDS011;5090;51.258;4.436;2023-04-24T06:55:09;23.97;;;9.30;;
10100;SDS011;5090;51.258;4.436;2023-04-24T06:57:37;18.20;;;8.20;;
10100;SDS011;5090;51.258;4.436;2023-04-24T07:00:06;17.13;;;8.33;;
10100;SDS011;5090;51.258;4.436;2023-04-24T07:02:35;18.00;;;8.10;;
10100;SDS011;5090;51.258;4.436;2023-04-24T07:05:04;18.90;;;8.63;;
10100;SDS011;5090;51.258;4.436;2023-04-24T07:07:32;20.17;;;7.97;;
10100;SDS011;5090;51.258;4.436;2023-04-24T07:10:00;11.93;;;6.10;;
10100;SDS011;5090;51.258;4.436;2023-04-24T07:12:28;12.93;;;6.83;;
10100;SDS011;5090;51.258;4.436;2023-04-24T07:14:56;16.33;;;6.27;;
10100;SDS011;5090;51.258;4.436;2023-04-24T07:17:25;17.07;;;6.33;;
10100;SDS011;5090;51.258;4.436;2023-04-24T07:19:53;13.40;;;5.60;;
10100;SDS011;5090;51.258;4.436;2023-04-24T07:22:21;13.20;;;5.00;;
10100;SDS011;5090;51.258;4.436;2023-04-24T07:24:50;10.73;;;4.87;;
10100;SDS011;5090;51.258;4.436;2023-04-24T07:27:18;14.43;;;4.37;;
10100;SDS011;5090;51.258;4.436;2023-04-24T07:29:46;9.93;;;4.07;;
10100;SDS011;5090;51.258;4.436;2023-04-24T07:32:14;9.80;;;3.97;;
10100;SDS011;5090;51.258;4.436;2023-04-24T07:34:43;10.17;;;4.00;;
10100;SDS011;5090;51.258;4.436;2023-04-24T07:37:11;15.70;;;4.83;;
10100;SDS011;5090;51.258;4.436;2023-04-24T07:39:39;12.07;;;4.10;;
10100;SDS011;5090;51.258;4.436;2023-04-24T07:42:07;16.90;;;4.10;;
10100;SDS011;5090;51.258;4.436;2023-04-24T07:44:36;11.10;;;4.50;;
10100;SDS011;5090;51.258;4.436;2023-04-24T07:47:04;12.50;;;4.43;;
10100;SDS011;5090;51.258;4.436;2023-04-24T07:49:32;13.93;;;4.60;;
10100;SDS011;5090;51.258;4.436;2023-04-24T07:52:01;10.03;;;4.03;;
10100;SDS011;5090;51.258;4.436;2023-04-24T07:54:29;10.70;;;4.23;;
10100;SDS011;5090;51.258;4.436;2023-04-24T07:56:57;15.03;;;4.43;;
10100;SDS011;5090;51.258;4.436;2023-04-24T07:59:26;16.53;;;4.93;;
10100;SDS011;5090;51.258;4.436;2023-04-24T08:01:54;15.17;;;4.37;;
10100;SDS011;5090;51.258;4.436;2023-04-24T08:04:23;13.43;;;4.17;;
10100;SDS011;5090;51.258;4.436;2023-04-24T08:06:51;16.97;;;4.93;;
10100;SDS011;5090;51.258;4.436;2023-04-24T08:09:20;18.37;;;4.40;;
10100;SDS011;5090;51.258;4.436;2023-04-24T08:11:49;15.13;;;4.00;;
10100;SDS011;5090;51.258;4.436;2023-04-24T08:14:17;9.90;;;3.57;;
10100;SDS011;5090;51.258;4.436;2023-04-24T08:16:45;11.40;;;3.20;;
10100;SDS011;5090;51.258;4.436;2023-04-24T08:19:13;10.47;;;3.70;;
10100;SDS011;5090;51.258;4.436;2023-04-24T08:21:42;13.73;;;4.33;;
10100;SDS011;5090;51.258;4.436;2023-04-24T08:24:10;14.80;;;4.27;;
10100;SDS011;5090;51.258;4.436;2023-04-24T08:26:38;19.53;;;5.17;;
10100;SDS011;5090;51.258;4.436;2023-04-24T08:29:07;12.13;;;4.23;;
10100;SDS011;5090;51.258;4.436;2023-04-24T08:31:35;11.93;;;4.23;;
10100;SDS011;5090;51.258;4.436;2023-04-24T08:34:03;10.97;;;3.63;;
10100;SDS011;5090;51.258;4.436;2023-04-24T08:36:32;12.30;;;3.67;;
10100;SDS011;5090;51.258;4.436;2023-04-24T08:39:00;14.03;;;3.70;;
10100;SDS011;5090;51.258;4.436;2023-04-24T08:41:28;9.27;;;2.97;;
10100;SDS011;5090;51.258;4.436;2023-04-24T08:43:57;11.47;;;3.40;;
10100;SDS011;5090;51.258;4.436;2023-04-24T08:46:25;12.67;;;3.20;;
10100;SDS011;5090;51.258;4.436;2023-04-24T08:48:53;12.53;;;3.40;;
10100;SDS011;5090;51.258;4.436;2023-04-24T08:51:22;9.23;;;3.07;;
10100;SDS011;5090;51.258;4.436;2023-04-24T08:53:50;12.77;;;3.43;;
10100;SDS011;5090;51.258;4.436;2023-04-24T08:56:19;9.20;;;3.10;;
10100;SDS011;5090;51.258;4.436;2023-04-24T08:58:51;11.63;;;3.47;;
10100;SDS011;5090;51.258;4.436;2023-04-24T09:01:19;6.90;;;2.83;;
10100;SDS011;5090;51.258;4.436;2023-04-24T09:03:48;11.80;;;3.23;;
10100;SDS011;5090;51.258;4.436;2023-04-24T09:06:16;8.43;;;2.97;;
10100;SDS011;5090;51.258;4.436;2023-04-24T09:08:45;11.90;;;2.77;;
10100;SDS011;5090;51.258;4.436;2023-04-24T09:11:13;13.77;;;3.07;;
10100;SDS011;5090;51.258;4.436;2023-04-24T09:13:41;10.47;;;3.23;;
10100;SDS011;5090;51.258;4.436;2023-04-24T09:16:10;8.10;;;2.90;;
10100;SDS011;5090;51.258;4.436;2023-04-24T09:18:38;12.40;;;3.57;;
10100;SDS011;5090;51.258;4.436;2023-04-24T09:21:07;9.77;;;3.00;;
10100;SDS011;5090;51.258;4.436;2023-04-24T09:23:35;6.10;;;2.93;;
10100;SDS011;5090;51.258;4.436;2023-04-24T09:26:04;10.03;;;3.00;;
10100;SDS011;5090;51.258;4.436;2023-04-24T09:28:37;8.80;;;2.70;;
10100;SDS011;5090;51.258;4.436;2023-04-24T09:31:05;9.53;;;2.33;;
10100;SDS011;5090;51.258;4.436;2023-04-24T09:33:34;6.87;;;2.67;;
10100;SDS011;5090;51.258;4.436;2023-04-24T09:36:02;6.73;;;2.60;;
10100;SDS011;5090;51.258;4.436;2023-04-24T09:38:32;10.90;;;2.70;;
10100;SDS011;5090;51.258;4.436;2023-04-24T09:41:00;8.83;;;2.70;;
10100;SDS011;5090;51.258;4.436;2023-04-24T09:43:27;7.70;;;2.80;;
10100;SDS011;5090;51.258;4.436;2023-04-24T09:45:56;10.23;;;2.70;;
10100;SDS011;5090;51.258;4.436;2023-04-24T09:48:29;11.83;;;2.53;;
10100;SDS011;5090;51.258;4.436;2023-04-24T09:50:57;9.00;;;2.30;;
10100;SDS011;5090;51.258;4.436;2023-04-24T09:53:25;7.40;;;2.60;;
10100;SDS011;5090;51.258;4.436;2023-04-24T09:55:53;6.80;;;2.07;;
10100;SDS011;5090;51.258;4.436;2023-04-24T09:58:25;10.07;;;2.27;;
10100;SDS011;5090;51.258;4.436;2023-04-24T10:00:55;6.20;;;2.03;;
10100;SDS011;5090;51.258;4.436;2023-04-24T10:03:26;5.57;;;1.97;;
10100;SDS011;5090;51.258;4.436;2023-04-24T10:06:02;6.43;;;2.10;;
10100;SDS011;5090;51.258;4.436;2023-04-24T10:08:39;7.23;;;2.03;;
10100;SDS011;5090;51.258;4.436;2023-04-24T10:11:09;6.30;;;2.10;;
10100;SDS011;5090;51.258;4.436;2023-04-24T10:13:39;7.70;;;2.27;;
10100;SDS011;5090;51.258;4.436;2023-04-24T10:16:07;8.77;;;2.33;;
10100;SDS011;5090;51.258;4.436;2023-04-24T10:18:35;7.67;;;2.23;;
10100;SDS011;5090;51.258;4.436;2023-04-24T10:21:04;8.60;;;2.23;;
10100;SDS011;5090;51.258;4.436;2023-04-24T10:23:33;4.43;;;2.07;;
10100;SDS011;5090;51.258;4.436;2023-04-24T10:26:01;5.53;;;1.80;;
10100;SDS011;5090;51.258;4.436;2023-04-24T10:28:30;5.67;;;2.03;;
10100;SDS011;5090;51.258;4.436;2023-04-24T10:30:58;4.70;;;1.87;;
10100;SDS011;5090;51.258;4.436;2023-04-24T10:33:26;6.07;;;2.20;;
10100;SDS011;5090;51.258;4.436;2023-04-24T10:35:54;4.22;;;1.73;;
10100;SDS011;5090;51.258;4.436;2023-04-24T10:38:24;6.73;;;1.70;;
10100;SDS011;5090;51.258;4.436;2023-04-24T10:40:56;5.70;;;1.60;;
10100;SDS011;5090;51.258;4.436;2023-04-24T10:43:20;10.23;;;1.80;;
10100;SDS011;5090;51.258;4.436;2023-04-24T10:48:27;4.27;;;1.87;;
10100;SDS011;5090;51.258;4.436;2023-04-24T10:50:56;7.40;;;2.57;;
10100;SDS011;5090;51.258;4.436;2023-04-24T10:53:27;13.03;;;2.20;;
10100;SDS011;5090;51.258;4.436;2023-04-24T10:56:03;7.60;;;1.87;;
10100;SDS011;5090;51.258;4.436;2023-04-24T10:58:39;3.30;;;2.00;;
10100;SDS011;5090;51.258;4.436;2023-04-24T11:01:06;4.30;;;1.63;;
10100;SDS011;5090;51.258;4.436;2023-04-24T11:03:35;4.53;;;1.50;;
10100;SDS011;5090;51.258;4.436;2023-04-24T11:06:04;4.13;;;1.47;;
10100;SDS011;5090;51.258;4.436;2023-04-24T11:08:38;4.27;;;1.50;;
10100;SDS011;5090;51.258;4.436;2023-04-24T11:11:12;6.00;;;1.77;;
10100;SDS011;5090;51.258;4.436;2023-04-24T11:16:15;4.53;;;1.27;;
10100;SDS011;5090;51.258;4.436;2023-04-24T11:18:43;3.37;;;1.27;;
10100;SDS011;5090;51.258;4.436;2023-04-24T11:21:17;3.77;;;1.50;;
10100;SDS011;5090;51.258;4.436;2023-04-24T11:23:45;13.73;;;1.60;;
10100;SDS011;5090;51.258;4.436;2023-04-24T11:26:17;6.37;;;1.10;;
10100;SDS011;5090;51.258;4.436;2023-04-24T11:28:45;7.10;;;1.30;;
10100;SDS011;5090;51.258;4.436;2023-04-24T11:33:47;4.57;;;1.20;;
10100;SDS011;5090;51.258;4.436;2023-04-24T11:36:16;1.43;;;1.17;;
10100;SDS011;5090;51.258;4.436;2023-04-24T11:38:45;7.27;;;1.43;;
10100;SDS011;5090;51.258;4.436;2023-04-24T11:41:14;8.33;;;1.93;;
10100;SDS011;5090;51.258;4.436;2023-04-24T11:43:42;8.30;;;1.47;;
10100;SDS011;5090;51.258;4.436;2023-04-24T11:46:10;4.30;;;1.30;;
10100;SDS011;5090;51.258;4.436;2023-04-24T11:48:38;6.03;;;1.40;;
10100;SDS011;5090;51.258;4.436;2023-04-24T11:51:07;2.43;;;1.40;;
10100;SDS011;5090;51.258;4.436;2023-04-24T11:53:35;4.57;;;1.60;;
10100;SDS011;5090;51.258;4.436;2023-04-24T11:56:04;7.20;;;1.70;;
10100;SDS011;5090;51.258;4.436;2023-04-24T11:58:35;8.97;;;1.73;;
10100;SDS011;5090;51.258;4.436;2023-04-24T12:01:03;5.93;;;1.77;;
10100;SDS011;5090;51.258;4.436;2023-04-24T12:03:31;4.07;;;1.70;;
10100;SDS011;5090;51.258;4.436;2023-04-24T12:08:34;8.77;;;1.97;;
10100;SDS011;5090;51.258;4.436;2023-04-24T12:11:02;7.03;;;1.87;;
10100;SDS011;5090;51.258;4.436;2023-04-24T12:13:31;6.53;;;2.03;;
10100;SDS011;5090;51.258;4.436;2023-04-24T12:15:59;5.13;;;1.80;;
10100;SDS011;5090;51.258;4.436;2023-04-24T12:18:27;9.37;;;2.47;;
10100;SDS011;5090;51.258;4.436;2023-04-24T12:21:03;6.17;;;2.33;;
10100;SDS011;5090;51.258;4.436;2023-04-24T12:26:00;4.27;;;1.70;;
10100;SDS011;5090;51.258;4.436;2023-04-24T12:28:34;17.33;;;2.33;;
10100;SDS011;5090;51.258;4.436;2023-04-24T12:30:57;2.63;;;1.23;;
10100;SDS011;5090;51.258;4.436;2023-04-24T12:33:26;4.43;;;1.40;;
10100;SDS011;5090;51.258;4.436;2023-04-24T12:35:54;5.57;;;1.77;;
10100;SDS011;5090;51.258;4.436;2023-04-24T12:38:23;5.33;;;1.33;;
10100;SDS011;5090;51.258;4.436;2023-04-24T12:43:29;3.83;;;2.00;;
10100;SDS011;5090;51.258;4.436;2023-04-24T12:45:57;9.43;;;2.73;;
10100;SDS011;5090;51.258;4.436;2023-04-24T12:48:26;3.23;;;1.93;;
10100;SDS011;5090;51.258;4.436;2023-04-24T12:50:54;7.03;;;2.03;;
10100;SDS011;5090;51.258;4.436;2023-04-24T12:53:23;6.80;;;2.00;;
10100;SDS011;5090;51.258;4.436;2023-04-24T12:55:51;7.37;;;1.97;;
10100;SDS011;5090;51.258;4.436;2023-04-24T12:58:20;5.13;;;2.10;;
10100;SDS011;5090;51.258;4.436;2023-04-24T13:00:49;5.50;;;2.43;;
10100;SDS011;5090;51.258;4.436;2023-04-24T13:03:17;9.30;;;2.83;;
10100;SDS011;5090;51.258;4.436;2023-04-24T13:05:45;7.00;;;2.67;;
10100;SDS011;5090;51.258;4.436;2023-04-24T13:08:14;4.77;;;2.07;;
10100;SDS011;5090;51.258;4.436;2023-04-24T13:10:46;4.33;;;2.20;;
10100;SDS011;5090;51.258;4.436;2023-04-24T13:13:14;4.53;;;1.73;;
10100;SDS011;5090;51.258;4.436;2023-04-24T13:15:46;3.80;;;2.00;;
10100;SDS011;5090;51.258;4.436;2023-04-24T13:18:25;3.63;;;1.60;;
10100;SDS011;5090;51.258;4.436;2023-04-24T13:23:52;2.17;;;1.33;;
10100;SDS011;5090;51.258;4.436;2023-04-24T13:26:20;2.83;;;1.53;;
10100;SDS011;5090;51.258;4.436;2023-04-24T13:28:48;4.10;;;1.87;;
10100;SDS011;5090;51.258;4.436;2023-04-24T13:31:17;5.57;;;1.53;;
10100;SDS011;5090;51.258;4.436;2023-04-24T13:33:45;4.00;;;1.60;;
10100;SDS011;5090;51.258;4.436;2023-04-24T13:36:15;5.13;;;1.50;;
10100;SDS011;5090;51.258;4.436;2023-04-24T13:38:44;5.50;;;1.63;;
10100;SDS011;5090;51.258;4.436;2023-04-24T13:41:19;2.10;;;1.20;;
10100;SDS011;5090;51.258;4.436;2023-04-24T13:43:49;4.20;;;1.40;;
10100;SDS011;5090;51.258;4.436;2023-04-24T13:46:17;2.97;;;1.47;;
10100;SDS011;5090;51.258;4.436;2023-04-24T13:48:52;2.23;;;1.30;;
10100;SDS011;5090;51.258;4.436;2023-04-24T13:51:20;4.73;;;1.73;;
10100;SDS011;5090;51.258;4.436;2023-04-24T13:53:53;6.10;;;1.90;;
10100;SDS011;5090;51.258;4.436;2023-04-24T13:56:22;4.10;;;1.80;;
10100;SDS011;5090;51.258;4.436;2023-04-24T13:58:51;3.57;;;1.90;;
10100;SDS011;5090;51.258;4.436;2023-04-24T14:01:19;3.07;;;1.70;;
10100;SDS011;5090;51.258;4.436;2023-04-24T14:03:53;4.57;;;1.60;;
10100;SDS011;5090;51.258;4.436;2023-04-24T14:06:23;3.60;;;1.60;;
10100;SDS011;5090;51.258;4.436;2023-04-24T14:08:51;4.63;;;1.57;;
10100;SDS011;5090;51.258;4.436;2023-04-24T14:11:21;3.40;;;1.70;;
10100;SDS011;5090;51.258;4.436;2023-04-24T14:13:49;3.13;;;1.70;;
10100;SDS011;5090;51.258;4.436;2023-04-24T14:16:17;3.20;;;1.70;;
10100;SDS011;5090;51.258;4.436;2023-04-24T14:18:50;3.63;;;1.70;;
10100;SDS011;5090;51.258;4.436;2023-04-24T14:21:20;3.80;;;1.23;;
10100;SDS011;5090;51.258;4.436;2023-04-24T14:23:50;2.53;;;1.43;;
10100;SDS011;5090;51.258;4.436;2023-04-24T14:26:18;2.77;;;1.43;;
10100;SDS011;5090;51.258;4.436;2023-04-24T14:28:47;3.53;;;1.40;;
10100;SDS011;5090;51.258;4.436;2023-04-24T14:31:15;3.10;;;1.37;;
10100;SDS011;5090;51.258;4.436;2023-04-24T14:33:44;3.30;;;1.40;;
10100;SDS011;5090;51.258;4.436;2023-04-24T14:36:13;9.07;;;2.00;;
10100;SDS011;5090;51.258;4.436;2023-04-24T14:38:41;4.97;;;2.37;;
10100;SDS011;5090;51.258;4.436;2023-04-24T14:41:13;3.50;;;2.10;;
10100;SDS011;5090;51.258;4.436;2023-04-24T14:43:41;4.57;;;2.40;;
10100;SDS011;5090;51.258;4.436;2023-04-24T14:46:09;5.43;;;1.97;;
10100;SDS011;5090;51.258;4.436;2023-04-24T14:48:38;3.43;;;1.87;;
10100;SDS011;5090;51.258;4.436;2023-04-24T14:51:07;3.83;;;1.83;;
10100;SDS011;5090;51.258;4.436;2023-04-24T14:53:36;4.53;;;2.37;;
10100;SDS011;5090;51.258;4.436;2023-04-24T14:56:05;4.10;;;2.23;;
10100;SDS011;5090;51.258;4.436;2023-04-24T15:07:49;5.23;;;1.93;;
10100;SDS011;5090;51.258;4.436;2023-04-24T15:10:14;4.03;;;2.13;;
10100;SDS011;5090;51.258;4.436;2023-04-24T15:13:03;7.47;;;2.60;;
10100;SDS011;5090;51.258;4.436;2023-04-24T15:15:36;8.60;;;2.90;;
10100;SDS011;5090;51.258;4.436;2023-04-24T15:18:07;6.23;;;2.63;;
10100;SDS011;5090;51.258;4.436;2023-04-24T15:20:34;9.33;;;3.27;;
10100;SDS011;5090;51.258;4.436;2023-04-24T15:23:02;6.70;;;2.60;;
10100;SDS011;5090;51.258;4.436;2023-04-24T15:25:30;5.57;;;2.70;;